createdAt,value
2019-02-19T00:00:42.647Z,35.46
2019-02-19T00:03:16.404Z,35.30
2019-02-19T00:05:48.776Z,35.23
2019-02-19T00:08:20.628Z,35.05
2019-02-19T00:11:01.521Z,34.86
2019-02-19T00:13:32.633Z,34.93
2019-02-19T00:16:04.444Z,34.70
2019-02-19T00:18:35.395Z,34.83
2019-02-19T00:21:06.384Z,35.17
2019-02-19T00:23:39.061Z,35.26
2019-02-19T00:26:14.302Z,35.25
2019-02-19T00:28:46.359Z,35.04
2019-02-19T00:31:18.616Z,35.39
2019-02-19T00:33:49.502Z,34.97
2019-02-19T00:36:21.797Z,34.88
2019-02-19T00:38:54.190Z,35.10
2019-02-19T00:41:25.948Z,35.11
2019-02-19T00:43:58.219Z,35.41
2019-02-19T00:46:31.499Z,35.17
2019-02-19T00:49:06.687Z,35.08
2019-02-19T00:51:44.235Z,35.33
2019-02-19T00:54:15.402Z,35.47
2019-02-19T00:56:51.947Z,35.32
2019-02-19T00:59:24.184Z,35.28
2019-02-19T01:02:01.075Z,35.21
2019-02-19T01:04:36.006Z,35.24
2019-02-19T01:07:07.851Z,35.21
2019-02-19T01:09:41.872Z,35.30
2019-02-19T01:12:12.985Z,35.49
2019-02-19T01:14:46.343Z,35.31
2019-02-19T01:17:21.012Z,35.04
2019-02-19T01:19:52.408Z,35.43
2019-02-19T01:22:25.539Z,35.49
2019-02-19T01:24:59.673Z,35.58
2019-02-19T01:27:31.973Z,35.64
2019-02-19T01:30:04.521Z,35.85
2019-02-19T01:32:36.961Z,35.48
2019-02-19T01:35:10.874Z,35.48
2019-02-19T01:37:41.177Z,35.77
2019-02-19T01:40:14.260Z,35.63
2019-02-19T01:42:49.177Z,35.83
2019-02-19T01:45:19.712Z,35.89
2019-02-19T01:47:52.944Z,35.72
2019-02-19T01:50:26.877Z,35.64
2019-02-19T01:52:58.130Z,35.52
2019-02-19T01:55:29.137Z,35.86
2019-02-19T01:57:59.943Z,35.70
2019-02-19T02:00:32.294Z,35.49
2019-02-19T02:03:05.282Z,35.49
2019-02-19T02:05:39.474Z,35.81
2019-02-19T02:08:13.197Z,35.85
2019-02-19T02:10:47.480Z,35.98
2019-02-19T02:13:20.071Z,36.03
2019-02-19T02:15:51.738Z,36.01
2019-02-19T02:18:23.268Z,35.96
2019-02-19T02:20:55.305Z,36.43
2019-02-19T02:23:29.554Z,36.40
2019-02-19T02:26:01.422Z,36.69
2019-02-19T02:28:34.546Z,37.01
2019-02-19T02:31:16.477Z,37.67
2019-02-19T02:33:47.098Z,37.27
2019-02-19T02:36:20.028Z,37.82
2019-02-19T02:38:51.538Z,38.41
2019-02-19T02:41:22.228Z,37.84
2019-02-19T02:43:54.569Z,38.60
2019-02-19T02:46:27.917Z,38.18
2019-02-19T02:48:59.989Z,37.97
2019-02-19T02:51:34.978Z,37.41
2019-02-19T02:54:07.708Z,37.34
2019-02-19T02:56:41.601Z,37.37
2019-02-19T02:59:16.230Z,39.41
2019-02-19T03:01:53.762Z,38.43
2019-02-19T03:04:25.451Z,38.56
2019-02-19T03:07:14.053Z,38.40
2019-02-19T03:09:45.811Z,38.08
2019-02-19T03:12:20.272Z,38.83
2019-02-19T03:14:59.999Z,38.29
2019-02-19T03:17:32.095Z,38.91
2019-02-19T03:20:07.168Z,38.99
2019-02-19T03:22:43.376Z,39.45
2019-02-19T03:25:19.169Z,40.85
2019-02-19T03:27:50.129Z,40.41
2019-02-19T03:30:21.632Z,39.67
2019-02-19T03:32:54.528Z,39.59
2019-02-19T03:35:30.269Z,39.93
2019-02-19T03:38:14.977Z,39.89
2019-02-19T03:40:46.272Z,39.33
2019-02-19T03:43:20.776Z,39.24
2019-02-19T03:45:56.169Z,39.23
2019-02-19T03:48:26.712Z,39.03
2019-02-19T03:50:57.701Z,39.24
2019-02-19T03:53:34.186Z,39.08
2019-02-19T03:56:07.863Z,39.11
2019-02-19T03:58:40.855Z,40.00
2019-02-19T04:01:17.679Z,39.72
2019-02-19T04:03:51.388Z,39.66
2019-02-19T04:06:23.116Z,40.23
2019-02-19T04:08:57.336Z,41.06
2019-02-19T04:11:31.598Z,40.73
2019-02-19T04:14:09.664Z,40.45
2019-02-19T04:16:42.724Z,41.17
2019-02-19T04:19:19.024Z,42.05
2019-02-19T04:21:51.842Z,41.61
2019-02-19T04:24:22.684Z,42.07
2019-02-19T04:26:53.935Z,41.98
2019-02-19T04:29:26.694Z,42.28
2019-02-19T04:31:57.843Z,43.08
2019-02-19T04:34:31.474Z,43.16
2019-02-19T04:37:05.846Z,44.15
2019-02-19T04:39:37.848Z,43.79
2019-02-19T04:42:13.055Z,44.26
2019-02-19T04:44:55.378Z,45.57
2019-02-19T04:47:26.921Z,47.05
2019-02-19T04:50:04.087Z,46.93
2019-02-19T04:52:38.174Z,48.07
2019-02-19T04:55:13.579Z,48.69
2019-02-19T04:57:46.772Z,48.26
2019-02-19T05:00:18.966Z,50.50
2019-02-19T05:03:00.346Z,51.19
2019-02-19T05:05:37.229Z,48.98
2019-02-19T05:08:10.643Z,48.42
2019-02-19T05:10:41.377Z,48.84
2019-02-19T05:13:14.806Z,48.49
2019-02-19T05:15:46.191Z,49.19
2019-02-19T05:18:17.233Z,49.44
2019-02-19T05:20:50.529Z,50.75
2019-02-19T05:23:25.826Z,49.22
2019-02-19T05:25:56.550Z,49.85
2019-02-19T05:28:30.762Z,49.94
2019-02-19T05:31:01.202Z,49.26
2019-02-19T05:33:35.939Z,49.72
2019-02-19T05:36:09.616Z,48.56
2019-02-19T05:38:45.316Z,49.28
2019-02-19T05:41:17.097Z,49.44
2019-02-19T05:43:50.106Z,48.88
2019-02-19T05:46:21.847Z,49.42
2019-02-19T05:48:52.496Z,48.82
2019-02-19T05:55:35.649Z,49.08
2019-02-19T05:58:09.685Z,47.98
2019-02-19T06:00:43.898Z,47.68
2019-02-19T06:03:15.557Z,47.94
2019-02-19T06:05:47.589Z,49.35
2019-02-19T06:08:18.752Z,50.88
2019-02-19T06:10:50.132Z,49.72
2019-02-19T06:13:21.982Z,49.40
2019-02-19T06:15:56.895Z,48.54
2019-02-19T06:18:31.609Z,50.17
2019-02-19T06:21:19.733Z,50.04
2019-02-19T06:24:11.890Z,49.54
2019-02-19T06:26:42.847Z,49.51
2019-02-19T06:29:16.152Z,49.94
2019-02-19T06:31:48.175Z,49.72
2019-02-19T06:34:33.481Z,49.01
2019-02-19T06:37:04.526Z,49.57
2019-02-19T06:39:35.263Z,51.03
2019-02-19T06:42:07.754Z,50.50
2019-02-19T06:44:40.917Z,50.73
2019-02-19T06:47:13.025Z,50.76
2019-02-19T06:49:46.604Z,51.80
2019-02-19T06:52:23.298Z,49.94
2019-02-19T06:55:09.764Z,49.83
2019-02-19T06:57:41.729Z,49.58
2019-02-19T07:00:15.138Z,50.93
2019-02-19T07:03:04.553Z,50.71
2019-02-19T07:05:35.188Z,49.68
2019-02-19T07:08:10.607Z,49.72
2019-02-19T07:10:50.838Z,49.04
2019-02-19T07:13:33.919Z,49.01
2019-02-19T07:16:06.014Z,49.51
2019-02-19T07:18:40.189Z,52.89
2019-02-19T07:21:10.820Z,50.73
2019-02-19T07:23:42.776Z,49.83
2019-02-19T07:26:17.113Z,49.11
2019-02-19T07:28:47.434Z,49.37
2019-02-19T07:31:19.268Z,48.42
2019-02-19T07:33:51.814Z,47.86
2019-02-19T07:36:22.854Z,50.00
2019-02-19T07:38:55.901Z,48.32
2019-02-19T07:41:28.089Z,47.77
2019-02-19T07:43:58.852Z,48.78
2019-02-19T07:46:32.651Z,47.87
2019-02-19T07:49:03.468Z,48.68
2019-02-19T07:51:36.626Z,47.86
2019-02-19T07:54:14.657Z,51.70
2019-02-19T07:56:48.159Z,48.96
2019-02-19T07:59:23.222Z,47.69
2019-02-19T08:01:56.142Z,46.75
2019-02-19T08:04:28.678Z,48.25
2019-02-19T08:06:59.199Z,47.38
2019-02-19T08:09:38.912Z,46.48
2019-02-19T08:12:09.239Z,46.64
2019-02-19T08:14:42.397Z,45.77
2019-02-19T08:17:14.332Z,45.81
2019-02-19T08:19:48.723Z,45.46
2019-02-19T08:22:20.394Z,44.67
2019-02-19T08:25:00.641Z,45.27
2019-02-19T08:27:32.675Z,44.98
2019-02-19T08:30:02.903Z,44.41
2019-02-19T08:32:33.159Z,44.96
2019-02-19T08:35:06.728Z,44.43
2019-02-19T08:37:39.756Z,44.52
2019-02-19T08:40:12.457Z,44.34
2019-02-19T08:42:47.671Z,43.85
2019-02-19T08:45:18.492Z,45.41
2019-02-19T08:47:49.966Z,44.52
2019-02-19T08:50:23.546Z,44.86
2019-02-19T08:52:54.797Z,44.91
2019-02-19T08:55:30.753Z,45.04
2019-02-19T08:58:03.986Z,45.16
2019-02-19T09:00:50.661Z,46.96
2019-02-19T09:03:23.832Z,45.62
2019-02-19T09:05:59.876Z,45.03
2019-02-19T09:08:34.923Z,45.56
2019-02-19T09:11:11.128Z,45.62
2019-02-19T09:13:43.951Z,46.30
2019-02-19T09:16:17.294Z,45.66
2019-02-19T09:19:03.697Z,44.74
2019-02-19T09:21:41.088Z,43.87
2019-02-19T09:24:14.823Z,44.25
2019-02-19T09:26:47.614Z,43.45
2019-02-19T09:29:18.752Z,42.98
2019-02-19T09:31:49.847Z,42.21
2019-02-19T09:34:22.568Z,43.01
2019-02-19T09:36:56.618Z,45.74
2019-02-19T09:39:27.724Z,44.46
2019-02-19T09:42:07.011Z,45.70
2019-02-19T09:44:40.916Z,44.57
2019-02-19T09:47:11.614Z,43.44
2019-02-19T09:49:45.638Z,44.60
2019-02-19T09:52:17.092Z,42.57
2019-02-19T09:54:50.706Z,43.79
2019-02-19T09:57:21.693Z,43.89
2019-02-19T09:59:52.368Z,43.30
2019-02-19T10:02:24.571Z,43.21
2019-02-19T10:05:05.968Z,41.75
2019-02-19T10:07:40.098Z,42.36
2019-02-19T10:10:14.120Z,40.13
2019-02-19T10:12:47.123Z,40.78
2019-02-19T10:15:18.510Z,39.84
2019-02-19T10:17:48.758Z,39.52
2019-02-19T10:20:20.857Z,40.46
2019-02-19T10:22:53.956Z,39.17
2019-02-19T10:25:25.729Z,39.33
2019-02-19T10:27:57.870Z,39.55
2019-02-19T10:30:29.248Z,37.74
2019-02-19T10:32:59.861Z,37.49
2019-02-19T10:35:30.412Z,36.23
2019-02-19T10:38:16.408Z,36.02
2019-02-19T10:40:52.693Z,35.15
2019-02-19T10:43:26.328Z,35.53
2019-02-19T10:46:10.191Z,35.04
2019-02-19T10:48:44.985Z,34.55
2019-02-19T10:51:21.395Z,34.12
2019-02-19T10:54:00.438Z,32.83
2019-02-19T10:56:31.381Z,33.42
2019-02-19T10:59:04.717Z,33.14
2019-02-19T11:01:37.517Z,32.33
2019-02-19T11:04:14.028Z,31.43
2019-02-19T11:06:46.388Z,33.38
2019-02-19T11:09:48.958Z,34.72
2019-02-19T11:12:22.999Z,35.86
2019-02-19T11:14:57.629Z,34.18
2019-02-19T11:17:29.356Z,34.90
2019-02-19T11:20:03.057Z,33.39
2019-02-19T11:22:39.046Z,33.78
2019-02-19T11:25:20.546Z,33.31
2019-02-19T11:27:57.279Z,34.08
2019-02-19T11:30:30.148Z,33.29
2019-02-19T11:33:02.420Z,32.24
2019-02-19T11:35:34.009Z,33.12
2019-02-19T11:38:06.238Z,31.97
2019-02-19T11:40:38.533Z,30.84
2019-02-19T11:43:12.017Z,28.97
2019-02-19T11:45:48.602Z,28.49
2019-02-19T11:48:21.031Z,30.12
2019-02-19T11:50:59.723Z,29.26
2019-02-19T11:53:30.774Z,27.08
2019-02-19T11:56:03.570Z,27.87
2019-02-19T11:58:39.111Z,27.11
2019-02-19T12:01:15.623Z,25.50
2019-02-19T12:03:57.364Z,26.49
2019-02-19T12:06:30.887Z,27.47
2019-02-19T12:09:04.081Z,28.02
2019-02-19T12:11:38.772Z,28.99
2019-02-19T12:14:19.915Z,28.43
2019-02-19T12:16:51.914Z,27.04
2019-02-19T12:19:33.856Z,24.80
2019-02-19T12:22:07.217Z,22.80
2019-02-19T12:24:46.778Z,21.81
2019-02-19T12:27:23.962Z,20.84
2019-02-19T12:29:57.544Z,20.78
2019-02-19T12:32:38.139Z,22.16
2019-02-19T12:35:22.096Z,22.75
2019-02-19T12:37:54.665Z,24.01
2019-02-19T12:41:06.343Z,25.95
2019-02-19T12:43:58.062Z,25.72
2019-02-19T12:46:43.858Z,27.38
2019-02-19T12:49:43.532Z,28.63
2019-02-19T12:52:41.863Z,28.33
2019-02-19T12:55:15.539Z,28.24
2019-02-19T12:57:49.234Z,28.69
2019-02-19T13:00:40.366Z,28.52
2019-02-19T13:03:13.276Z,28.89
2019-02-19T13:05:49.264Z,29.41
2019-02-19T13:08:25.591Z,29.50
2019-02-19T13:10:58.060Z,30.31
2019-02-19T13:13:47.987Z,30.32
2019-02-19T13:16:35.928Z,27.50
2019-02-19T13:19:09.357Z,26.62
2019-02-19T13:22:00.805Z,23.57
2019-02-19T13:25:09.133Z,21.46
2019-02-19T13:27:55.202Z,19.45
2019-02-19T13:30:40.144Z,17.64
2019-02-19T13:33:17.108Z,17.54
2019-02-19T13:36:14.158Z,18.15
2019-02-19T13:38:53.164Z,19.86
2019-02-19T13:41:26.126Z,22.16
2019-02-19T13:44:01.283Z,22.77
2019-02-19T13:46:34.987Z,23.34
2019-02-19T13:49:18.785Z,25.30
2019-02-19T13:51:52.024Z,25.46
2019-02-19T13:54:50.314Z,26.44
2019-02-19T14:01:21.969Z,26.23
2019-02-19T14:03:57.228Z,27.50
2019-02-19T14:06:31.159Z,27.21
2019-02-19T14:09:01.634Z,27.27
2019-02-19T14:12:13.784Z,27.69
2019-02-19T14:15:21.263Z,27.14
2019-02-19T14:18:15.371Z,27.71
2019-02-19T14:21:25.536Z,28.06
2019-02-19T14:24:24.456Z,28.41
2019-02-19T14:27:40.779Z,28.75
2019-02-19T14:30:31.712Z,29.22
2019-02-19T14:33:21.301Z,29.30
2019-02-19T14:36:23.381Z,29.08
2019-02-19T14:39:31.064Z,29.25
2019-02-19T14:42:24.301Z,29.64
2019-02-19T14:45:35.513Z,33.08
2019-02-19T14:48:47.008Z,31.48
2019-02-19T14:51:36.814Z,31.48
2019-02-19T14:54:29.730Z,31.37
2019-02-19T14:57:23.447Z,31.37
2019-02-19T15:00:14.193Z,32.30
2019-02-19T15:03:21.856Z,31.92
2019-02-19T15:06:16.252Z,32.75
2019-02-19T15:09:19.858Z,32.22
2019-02-19T15:12:11.578Z,32.92
2019-02-19T15:15:03.276Z,32.42
2019-02-19T15:17:48.605Z,32.58
2019-02-19T15:20:41.224Z,32.30
2019-02-19T15:23:34.188Z,31.99
2019-02-19T15:26:19.691Z,31.66
2019-02-19T15:29:09.881Z,33.02
2019-02-19T15:31:57.662Z,32.61
2019-02-19T15:35:02.184Z,32.96
2019-02-19T15:37:54.085Z,34.98
2019-02-19T15:40:55.779Z,35.07
2019-02-19T15:43:34.572Z,33.85
2019-02-19T15:46:27.559Z,33.61
2019-02-19T15:49:23.579Z,33.50
2019-02-19T15:52:15.567Z,33.07
2019-02-19T15:56:00.830Z,33.51
2019-02-19T15:59:01.821Z,33.77
2019-02-19T16:01:53.382Z,34.12
2019-02-19T16:04:57.693Z,33.70
2019-02-19T16:07:56.184Z,33.16
2019-02-19T16:10:49.686Z,33.13
2019-02-19T16:13:51.850Z,32.96
2019-02-19T16:16:52.807Z,33.52
2019-02-19T16:20:01.932Z,33.15
2019-02-19T16:23:39.526Z,33.22
2019-02-19T16:26:50.714Z,33.60
2019-02-19T16:30:35.844Z,34.07
2019-02-19T16:34:18.453Z,33.34
2019-02-19T17:00:12.772Z,33.98
2019-02-19T17:03:16.149Z,33.66
2019-02-19T17:07:16.205Z,33.87
2019-02-19T17:10:05.300Z,34.16
2019-02-19T17:13:25.261Z,35.20
2019-02-19T17:20:28.966Z,34.96
2019-02-19T17:23:06.940Z,34.59
2019-02-19T17:30:18.066Z,34.52
2019-02-19T17:33:11.536Z,34.63
2019-02-19T17:36:10.428Z,34.54
2019-02-19T17:45:59.518Z,35.58
2019-02-19T17:48:49.122Z,34.92
2019-02-19T17:51:41.727Z,34.66
2019-02-19T17:54:31.835Z,34.60
2019-02-19T17:57:43.523Z,35.08
2019-02-19T18:00:38.214Z,34.87
2019-02-19T18:03:46.481Z,34.18
2019-02-19T18:06:30.305Z,34.87
2019-02-19T18:09:27.220Z,34.62
2019-02-19T18:12:20.699Z,34.62
2019-02-19T18:15:19.473Z,34.73
2019-02-19T18:18:22.201Z,34.48
2019-02-19T18:21:02.988Z,34.84
2019-02-19T18:23:59.592Z,35.12
2019-02-19T18:26:38.244Z,36.35
2019-02-19T18:29:18.383Z,35.91
2019-02-19T18:31:51.503Z,35.56
2019-02-19T18:34:27.440Z,36.40
2019-02-19T18:37:00.169Z,36.00
2019-02-19T18:39:47.808Z,35.72
2019-02-19T18:42:32.304Z,35.88
2019-02-19T18:49:12.853Z,35.69
2019-02-19T18:52:03.144Z,36.01
2019-02-19T18:54:42.479Z,36.43
2019-02-19T18:57:20.916Z,36.02
2019-02-19T18:59:53.295Z,35.74
2019-02-19T19:02:31.629Z,35.94
2019-02-19T19:05:03.959Z,35.88
2019-02-19T19:07:36.248Z,36.50
2019-02-19T19:10:17.821Z,37.12
2019-02-19T19:12:53.642Z,37.29
2019-02-19T19:15:26.581Z,37.15
2019-02-19T19:17:56.772Z,36.62
2019-02-19T19:20:27.263Z,36.37
2019-02-19T19:22:59.558Z,36.28
2019-02-19T19:25:34.423Z,36.36
2019-02-19T19:28:08.363Z,36.62
2019-02-19T19:30:44.961Z,36.80
2019-02-19T19:33:32.879Z,37.03
2019-02-19T19:36:08.631Z,36.75
2019-02-19T19:38:53.193Z,36.80
2019-02-19T19:42:07.302Z,36.38
2019-02-19T19:45:05.851Z,36.23
2019-02-19T19:50:57.955Z,36.17
2019-02-19T19:53:33.522Z,35.92
2019-02-19T19:56:17.737Z,36.31
2019-02-19T19:58:57.063Z,36.33
2019-02-19T20:01:35.634Z,37.37
2019-02-19T20:04:19.984Z,37.42
2019-02-19T20:07:25.073Z,36.74
2019-02-19T20:10:10.702Z,37.00
2019-02-19T20:13:04.258Z,36.89
2019-02-19T20:15:37.541Z,37.04
2019-02-19T20:21:26.683Z,36.74
2019-02-19T20:23:58.498Z,36.74
2019-02-19T20:26:29.916Z,36.80
2019-02-19T20:29:04.407Z,37.48
2019-02-19T20:31:38.342Z,37.23
2019-02-19T20:34:12.454Z,38.27
2019-02-19T20:36:48.047Z,39.16
2019-02-19T20:39:20.361Z,39.70
2019-02-19T20:41:51.363Z,40.55
2019-02-19T20:44:23.410Z,40.88
2019-02-19T20:46:55.859Z,40.60
2019-02-19T20:49:30.391Z,41.84
2019-02-19T20:52:05.397Z,40.41
2019-02-19T20:54:37.590Z,40.14
2019-02-19T20:57:10.308Z,40.71
2019-02-19T20:59:42.362Z,39.71
2019-02-19T21:02:14.635Z,40.08
2019-02-19T21:04:46.247Z,39.75
2019-02-19T21:10:16.204Z,40.51
2019-02-19T21:12:49.970Z,41.86
2019-02-19T21:15:24.820Z,41.13
2019-02-19T21:17:59.205Z,40.26
2019-02-19T21:20:33.676Z,40.15
2019-02-19T21:23:05.263Z,41.63
2019-02-19T21:25:37.165Z,40.94
2019-02-19T21:28:10.707Z,41.57
2019-02-19T21:30:45.467Z,40.77
2019-02-19T21:33:18.204Z,40.11
2019-02-19T21:35:52.849Z,42.46
2019-02-19T21:38:25.167Z,41.17
2019-02-19T21:40:57.529Z,41.75
2019-02-19T21:43:31.496Z,40.83
2019-02-19T21:46:03.422Z,42.23
2019-02-19T21:48:35.686Z,42.76
2019-02-19T21:51:08.184Z,42.46
2019-02-19T21:53:41.660Z,44.36
2019-02-19T21:56:17.593Z,43.54
2019-02-19T22:01:46.392Z,43.21
2019-02-19T22:04:19.489Z,42.86
2019-02-19T22:06:53.084Z,41.89
2019-02-19T22:09:31.173Z,42.01
2019-02-19T22:12:22.978Z,42.20
2019-02-19T22:14:55.030Z,41.84
2019-02-19T22:17:31.027Z,41.72
2019-02-19T22:20:03.695Z,42.54
2019-02-19T22:22:39.910Z,42.86
2019-02-19T22:25:11.855Z,41.81
2019-02-19T22:27:43.653Z,41.08
2019-02-19T22:30:17.234Z,41.05
2019-02-19T22:32:48.399Z,42.00
2019-02-19T22:35:20.869Z,41.05
2019-02-19T22:37:52.906Z,41.32
2019-02-19T22:40:24.046Z,43.59
2019-02-19T22:42:56.456Z,42.80
2019-02-19T22:45:31.273Z,42.00
2019-02-19T22:48:03.353Z,42.28
2019-02-19T22:50:37.281Z,42.47
2019-02-19T22:53:29.256Z,41.67
2019-02-19T22:56:09.544Z,42.09
2019-02-19T22:58:40.799Z,42.47
2019-02-19T23:01:28.531Z,42.51
2019-02-19T23:04:05.515Z,42.39
2019-02-19T23:06:43.124Z,43.06
2019-02-19T23:09:14.455Z,42.98
2019-02-19T23:11:44.879Z,41.66
2019-02-19T23:14:17.139Z,42.88
2019-02-19T23:16:50.454Z,42.71
2019-02-19T23:19:21.853Z,43.09
2019-02-19T23:21:55.266Z,42.44
2019-02-19T23:24:29.259Z,41.61
2019-02-19T23:26:59.857Z,41.96
2019-02-19T23:29:31.426Z,41.60
2019-02-19T23:32:02.542Z,41.65
2019-02-19T23:34:35.328Z,40.95
2019-02-19T23:37:14.897Z,40.75
2019-02-19T23:39:46.714Z,41.29
2019-02-19T23:42:19.825Z,40.91
2019-02-19T23:44:52.182Z,40.77
2019-02-19T23:47:22.999Z,40.65
2019-02-19T23:49:53.281Z,40.65
2019-02-19T23:52:30.583Z,41.02
2019-02-19T23:55:03.426Z,40.75
2019-02-19T23:57:42.925Z,40.43
